createdAt,value
2015-10-12T00:00:15.682Z,4.9
2015-10-12T00:00:34.135Z,4.9
2015-10-12T00:00:52.557Z,4.9
2015-10-12T00:01:10.980Z,5
2015-10-12T00:01:29.324Z,5
2015-10-12T00:01:47.934Z,5
2015-10-12T00:02:06.296Z,5
2015-10-12T00:02:24.671Z,5
2015-10-12T00:02:43.343Z,5
2015-10-12T00:03:01.905Z,5
2015-10-12T00:03:20.315Z,4.9
2015-10-12T00:03:38.736Z,4.9
2015-10-12T00:03:57.283Z,4.9
2015-10-12T00:04:16.005Z,4.8
2015-10-12T00:04:34.364Z,4.8
2015-10-12T00:04:52.880Z,4.8
2015-10-12T00:05:11.399Z,4.8
2015-10-12T00:05:29.977Z,4.8
2015-10-12T00:05:48.446Z,4.8
2015-10-12T00:06:07.258Z,4.8
2015-10-12T00:06:25.760Z,4.8
2015-10-12T00:06:44.323Z,4.8
2015-10-12T00:07:02.916Z,4.8
2015-10-12T00:07:21.513Z,4.9
2015-10-12T00:07:40.201Z,4.9
2015-10-12T00:07:58.576Z,4.9
2015-10-12T00:08:17.016Z,4.9
2015-10-12T00:08:35.579Z,4.9
2015-10-12T00:08:53.954Z,4.9
2015-10-12T00:09:12.313Z,4.9
2015-10-12T00:09:30.691Z,4.9
2015-10-12T00:09:49.285Z,4.9
2015-10-12T00:10:07.832Z,4.9
2015-10-12T00:10:26.380Z,4.9
2015-10-12T00:10:44.771Z,4.9
2015-10-12T00:11:03.209Z,4.9
2015-10-12T00:11:21.602Z,4.9
2015-10-12T00:11:39.946Z,4.9
2015-10-12T00:11:58.305Z,4.9
2015-10-12T00:12:16.855Z,4.9
2015-10-12T00:12:35.215Z,4.9
2015-10-12T00:12:53.746Z,5
2015-10-12T00:13:12.152Z,5
2015-10-12T00:13:30.529Z,5
2015-10-12T00:13:48.904Z,5
2015-10-12T00:14:07.560Z,4.9
2015-10-12T00:14:25.938Z,4.9
2015-10-12T00:14:44.407Z,4.9
2015-10-12T00:15:02.782Z,4.8
2015-10-12T00:15:21.675Z,4.8
2015-10-12T00:15:40.018Z,4.8
2015-10-12T00:15:58.550Z,4.7
2015-10-12T00:16:17.065Z,4.7
2015-10-12T00:16:35.615Z,4.7
2015-10-12T00:16:54.209Z,4.7
2015-10-12T00:17:12.896Z,4.8
2015-10-12T00:17:31.618Z,4.8
2015-10-12T00:17:50.274Z,4.8
2015-10-12T00:18:08.696Z,4.8
2015-10-12T00:18:27.215Z,4.8
2015-10-12T00:18:45.543Z,4.7
2015-10-12T00:19:03.965Z,4.7
2015-10-12T00:19:22.324Z,4.7
2015-10-12T00:19:40.796Z,4.7
2015-10-12T00:19:59.187Z,4.7
2015-10-12T00:20:17.687Z,4.7
2015-10-12T00:20:36.048Z,4.7
2015-10-12T00:20:54.486Z,4.7
2015-10-12T00:21:12.907Z,4.7
2015-10-12T00:21:31.254Z,4.7
2015-10-12T00:21:49.629Z,4.7
2015-10-12T00:22:08.223Z,4.7
2015-10-12T00:22:26.629Z,4.7
2015-10-12T00:22:45.101Z,4.8
2015-10-12T00:23:03.492Z,4.8
2015-10-12T00:23:21.913Z,4.8
2015-10-12T00:23:40.370Z,4.8
2015-10-12T00:23:58.760Z,4.8
2015-10-12T00:24:17.260Z,4.9
2015-10-12T00:24:35.623Z,4.9
2015-10-12T00:24:54.060Z,4.9
2015-10-12T00:25:12.451Z,4.9
2015-10-12T00:25:30.966Z,4.8
2015-10-12T00:25:49.359Z,4.8
2015-10-12T00:26:07.890Z,4.8
2015-10-12T00:26:26.390Z,4.7
2015-10-12T00:26:44.799Z,4.7
2015-10-12T00:27:03.206Z,4.7
2015-10-12T00:27:21.721Z,4.7
2015-10-12T00:27:40.223Z,4.7
2015-10-12T00:27:58.614Z,4.7
2015-10-12T00:28:17.083Z,4.7
2015-10-12T00:28:35.458Z,4.7
2015-10-12T00:28:53.883Z,4.7
2015-10-12T00:29:12.429Z,4.7
2015-10-12T00:29:30.914Z,4.7
2015-10-12T00:29:49.340Z,4.7
2015-10-12T00:30:07.730Z,4.7
2015-10-12T00:30:26.183Z,4.7
2015-10-12T00:30:45.014Z,4.7
2015-10-12T00:31:03.420Z,4.7
2015-10-12T00:31:22.279Z,4.7
2015-10-12T00:31:40.764Z,4.7
2015-10-12T00:31:59.548Z,4.7
2015-10-12T00:32:18.126Z,4.7
2015-10-12T00:32:36.532Z,4.6
2015-10-12T00:32:54.878Z,4.6
2015-10-12T00:33:13.237Z,4.6
2015-10-12T00:33:31.815Z,4.7
2015-10-12T00:33:50.568Z,4.7
2015-10-12T00:34:09.006Z,4.7
2015-10-12T00:34:27.553Z,4.7
2015-10-12T00:34:46.006Z,4.7
2015-10-12T00:35:04.587Z,4.6
2015-10-12T00:35:23.134Z,4.6
2015-10-12T00:35:41.587Z,4.6
2015-10-12T00:36:00.121Z,4.6
2015-10-12T00:36:18.684Z,4.5
2015-10-12T00:36:37.231Z,4.6
2015-10-12T00:36:56.015Z,4.6
2015-10-12T00:37:14.484Z,4.6
2015-10-12T00:37:33.124Z,4.6
2015-10-12T00:37:51.704Z,4.5
2015-10-12T00:38:10.064Z,4.5
2015-10-12T00:38:28.423Z,4.4
2015-10-12T00:38:46.954Z,4.4
2015-10-12T00:39:05.457Z,4.4
2015-10-12T00:39:23.145Z,4.4
2015-10-12T00:39:41.707Z,4.4
2015-10-12T00:40:00.335Z,4.4
2015-10-12T00:40:18.851Z,4.4
2015-10-12T00:40:37.476Z,4.4
2015-10-12T00:40:55.823Z,4.4
2015-10-12T00:41:14.479Z,4.4
2015-10-12T00:41:32.885Z,4.4
2015-10-12T00:41:51.292Z,4.4
2015-10-12T00:42:09.747Z,4.3
2015-10-12T00:42:28.231Z,4.4
2015-10-12T00:42:46.856Z,4.4
2015-10-12T00:43:05.577Z,4.4
2015-10-12T00:43:23.905Z,4.4
2015-10-12T00:43:42.389Z,4.4
2015-10-12T00:44:01.003Z,4.4
2015-10-12T00:44:19.659Z,4.4
2015-10-12T00:44:38.409Z,4.4
2015-10-12T00:44:56.833Z,4.4
2015-10-12T00:45:15.473Z,4.4
2015-10-12T00:45:33.958Z,4.4
2015-10-12T00:45:52.723Z,4.5
2015-10-12T00:46:11.180Z,4.4
2015-10-12T00:46:29.586Z,4.4
2015-10-12T00:46:47.945Z,4.4
2015-10-12T00:47:06.854Z,4.4
2015-10-12T00:47:25.214Z,4.4
2015-10-12T00:47:43.839Z,4.4
2015-10-12T00:48:02.264Z,4.4
2015-10-12T00:48:20.998Z,4.4
2015-10-12T00:48:39.561Z,4.4
2015-10-12T00:48:57.922Z,4.3
2015-10-12T00:49:16.563Z,4.4
2015-10-12T00:49:35.125Z,4.4
2015-10-12T00:49:53.766Z,4.4
2015-10-12T00:50:12.533Z,4.4
2015-10-12T00:50:31.080Z,4.4
2015-10-12T00:50:49.721Z,4.4
2015-10-12T00:51:08.522Z,4.5
2015-10-12T00:51:26.897Z,4.5
2015-10-12T00:51:45.381Z,4.5
2015-10-12T00:52:03.775Z,4.5
2015-10-12T00:52:22.306Z,4.5
2015-10-12T00:52:40.822Z,4.4
2015-10-12T00:52:59.212Z,4.4
2015-10-12T00:53:17.777Z,4.4
2015-10-12T00:53:36.152Z,4.4
2015-10-12T00:53:54.636Z,4.4
2015-10-12T00:54:13.233Z,4.3
2015-10-12T00:54:31.655Z,4.4
2015-10-12T00:54:50.358Z,4.4
2015-10-12T00:55:08.907Z,4.4
2015-10-12T00:55:27.485Z,4.4
2015-10-12T00:55:46.032Z,4.4
2015-10-12T00:56:04.422Z,4.4
2015-10-12T00:56:22.832Z,4.4
2015-10-12T00:56:41.238Z,4.4
2015-10-12T00:56:59.863Z,4.4
2015-10-12T00:57:18.397Z,4.4
2015-10-12T00:57:36.866Z,4.4
2015-10-12T00:57:55.366Z,4.4
2015-10-12T00:58:14.244Z,4.3
2015-10-12T00:58:32.713Z,4.3
2015-10-12T00:58:51.150Z,4.4
2015-10-12T00:59:09.509Z,4.3
2015-10-12T00:59:28.091Z,4.3
2015-10-12T00:59:46.466Z,4.3
2015-10-12T01:00:04.997Z,4.4
2015-10-12T01:00:23.531Z,4.4
2015-10-12T01:00:42.000Z,4.4
2015-10-12T01:01:00.422Z,4.3
2015-10-12T01:01:18.939Z,4.3
2015-10-12T01:01:37.455Z,4.3
2015-10-12T01:01:55.986Z,4.3
2015-10-12T01:02:14.377Z,4.3
2015-10-12T01:02:32.770Z,4.3
2015-10-12T01:02:51.145Z,4.3
2015-10-12T01:03:09.661Z,4.4
2015-10-12T01:03:28.102Z,4.4
2015-10-12T01:03:46.820Z,4.5
2015-10-12T01:04:05.336Z,4.5
2015-10-12T01:04:23.714Z,4.5
2015-10-12T01:04:42.136Z,4.5
2015-10-12T01:05:00.542Z,4.5
2015-10-12T01:05:18.888Z,4.3
2015-10-12T01:05:37.357Z,4.3
2015-10-12T01:05:55.700Z,4.3
2015-10-12T01:06:14.388Z,4.3
2015-10-12T01:06:32.860Z,4.3
2015-10-12T01:06:51.297Z,4.3
2015-10-12T01:07:09.906Z,4.4
2015-10-12T01:07:28.299Z,4.4
2015-10-12T01:07:46.737Z,4.4
2015-10-12T01:08:05.408Z,4.4
2015-10-12T01:08:23.927Z,4.4
2015-10-12T01:08:42.333Z,4.4
2015-10-12T01:09:00.677Z,4.4
2015-10-12T01:09:19.208Z,4.4
2015-10-12T01:09:37.711Z,4.4
2015-10-12T01:09:56.336Z,4.4
2015-10-12T01:10:14.696Z,4.4
2015-10-12T01:10:33.449Z,4.4
2015-10-12T01:10:51.949Z,4.4
2015-10-12T01:11:10.652Z,4.4
2015-10-12T01:11:29.310Z,4.4
2015-10-12T01:11:47.716Z,4.4
2015-10-12T01:12:06.248Z,4.4
2015-10-12T01:12:24.752Z,4.4
2015-10-12T01:12:43.173Z,4.5
2015-10-12T01:13:01.845Z,4.4
2015-10-12T01:13:20.486Z,4.5
2015-10-12T01:13:38.862Z,4.5
2015-10-12T01:13:57.393Z,4.5
2015-10-12T01:14:15.909Z,4.6
2015-10-12T01:14:34.100Z,4.6
2015-10-12T01:14:52.616Z,4.6
2015-10-12T01:15:11.147Z,4.6
2015-10-12T01:15:29.509Z,4.6
2015-10-12T01:15:47.868Z,4.5
2015-10-12T01:16:06.274Z,4.5
2015-10-12T01:16:24.649Z,4.5
2015-10-12T01:16:43.184Z,4.5
2015-10-12T01:17:01.747Z,4.5
2015-10-12T01:17:20.231Z,4.5
2015-10-12T01:17:38.733Z,4.5
2015-10-12T01:17:57.280Z,4.5
2015-10-12T01:18:15.718Z,4.5
2015-10-12T01:18:34.548Z,4.5
2015-10-12T01:18:53.157Z,4.5
2015-10-12T01:19:11.532Z,4.5
2015-10-12T01:19:29.985Z,4.5
2015-10-12T01:19:48.411Z,4.5
2015-10-12T01:20:06.833Z,4.5
2015-10-12T01:20:25.364Z,4.5
2015-10-12T01:20:44.101Z,4.4
2015-10-12T01:21:02.554Z,4.5
2015-10-12T01:21:20.944Z,4.5
2015-10-12T01:21:39.322Z,4.5
2015-10-12T01:21:57.822Z,4.5
2015-10-12T01:22:16.244Z,4.5
2015-10-12T01:22:34.729Z,4.5
2015-10-12T01:22:53.310Z,4.5
2015-10-12T01:23:12.075Z,4.5
2015-10-12T01:23:30.732Z,4.4
2015-10-12T01:23:49.110Z,4.5
2015-10-12T01:24:07.532Z,4.5
2015-10-12T01:24:26.110Z,4.5
2015-10-12T01:24:44.581Z,4.6
2015-10-12T01:25:02.925Z,4.6
2015-10-12T01:25:21.441Z,4.6
2015-10-12T01:25:39.847Z,4.6
2015-10-12T01:25:58.271Z,4.6
2015-10-12T01:26:16.708Z,4.5
2015-10-12T01:26:35.193Z,4.6
2015-10-12T01:26:53.711Z,4.6
2015-10-12T01:27:12.180Z,4.6
2015-10-12T01:27:30.602Z,4.5
2015-10-12T01:27:48.995Z,4.5
2015-10-12T01:28:07.323Z,4.5
2015-10-12T01:28:25.885Z,4.4
2015-10-12T01:28:44.245Z,4.5
2015-10-12T01:29:02.810Z,4.5
2015-10-12T01:29:21.373Z,4.5
2015-10-12T01:29:39.763Z,4.6
2015-10-12T01:29:58.251Z,4.5
2015-10-12T01:30:16.704Z,4.5
2015-10-12T01:30:35.266Z,4.6
2015-10-12T01:30:53.628Z,4.6
2015-10-12T01:31:11.971Z,4.5
2015-10-12T01:31:30.503Z,4.5
2015-10-12T01:31:48.959Z,4.5
2015-10-12T01:32:07.756Z,4.5
2015-10-12T01:32:26.224Z,4.5
2015-10-12T01:32:44.740Z,4.5
2015-10-12T01:33:03.181Z,4.5
2015-10-12T01:33:21.743Z,4.5
2015-10-12T01:33:40.071Z,4.5
2015-10-12T01:33:58.605Z,4.5
2015-10-12T01:34:17.012Z,4.6
2015-10-12T01:34:35.387Z,4.6
2015-10-12T01:34:53.874Z,4.6
2015-10-12T01:35:12.280Z,4.7
2015-10-12T01:35:30.921Z,4.7
2015-10-12T01:35:49.595Z,4.7
2015-10-12T01:36:08.032Z,4.6
2015-10-12T01:36:26.532Z,4.5
2015-10-12T01:36:45.064Z,4.6
2015-10-12T01:37:03.441Z,4.6
2015-10-12T01:37:21.878Z,4.6
2015-10-12T01:37:40.441Z,4.6
2015-10-12T01:37:58.804Z,4.6
2015-10-12T01:38:17.163Z,4.6
2015-10-12T01:38:35.570Z,4.5
2015-10-12T01:38:53.916Z,4.5
2015-10-12T01:39:12.338Z,4.4
2015-10-12T01:39:30.901Z,4.5
2015-10-12T01:39:49.416Z,4.6
2015-10-12T01:40:07.871Z,4.6
2015-10-12T01:40:26.418Z,4.6
2015-10-12T01:40:44.965Z,4.6
2015-10-12T01:41:03.421Z,4.6
2015-10-12T01:41:21.843Z,4.6
2015-10-12T01:41:40.484Z,4.5
2015-10-12T01:41:58.861Z,4.6
2015-10-12T01:42:17.267Z,4.6
2015-10-12T01:42:35.751Z,4.7
2015-10-12T01:42:54.220Z,4.7
2015-10-12T01:43:12.911Z,4.7
2015-10-12T01:43:31.270Z,4.6
2015-10-12T01:43:49.629Z,4.6
2015-10-12T01:44:08.054Z,4.6
2015-10-12T01:44:26.507Z,4.6
2015-10-12T01:44:45.007Z,4.6
2015-10-12T01:45:03.604Z,4.7
2015-10-12T01:45:21.979Z,4.7
2015-10-12T01:45:40.479Z,4.7
2015-10-12T01:45:59.276Z,4.7
2015-10-12T01:46:17.762Z,4.6
2015-10-12T01:46:36.106Z,4.6
2015-10-12T01:46:54.606Z,4.6
2015-10-12T01:47:13.095Z,4.6
2015-10-12T01:47:31.438Z,4.7
2015-10-12T01:47:50.016Z,4.7
2015-10-12T01:48:08.378Z,4.7
2015-10-12T01:48:26.737Z,4.7
2015-10-12T01:48:45.550Z,4.7
2015-10-12T01:49:04.097Z,4.7
2015-10-12T01:49:22.709Z,4.7
2015-10-12T01:49:41.084Z,4.6
2015-10-12T01:49:59.631Z,4.6
2015-10-12T01:50:18.384Z,4.6
2015-10-12T01:50:36.931Z,4.7
2015-10-12T01:50:55.431Z,4.6
2015-10-12T01:51:13.871Z,4.6
2015-10-12T01:51:32.356Z,4.7
2015-10-12T01:51:50.777Z,4.7
2015-10-12T01:52:09.295Z,4.6
2015-10-12T01:52:27.654Z,4.6
2015-10-12T01:52:45.998Z,4.5
2015-10-12T01:53:04.420Z,4.5
2015-10-12T01:53:22.829Z,4.5
2015-10-12T01:53:41.517Z,4.6
2015-10-12T01:54:00.267Z,4.6
2015-10-12T01:54:18.676Z,4.6
2015-10-12T01:54:37.114Z,4.6
2015-10-12T01:54:55.473Z,4.7
2015-10-12T01:55:13.850Z,4.7
2015-10-12T01:55:32.350Z,4.6
2015-10-12T01:55:50.709Z,4.6
2015-10-12T01:56:09.116Z,4.6
2015-10-12T01:56:27.040Z,4.6
2015-10-12T01:56:45.337Z,4.5
2015-10-12T01:57:03.884Z,4.5
2015-10-12T01:57:22.247Z,4.5
2015-10-12T01:57:40.950Z,4.5
2015-10-12T01:57:59.340Z,4.5
2015-10-12T01:58:17.843Z,4.5
2015-10-12T01:58:36.656Z,4.5
2015-10-12T01:58:55.593Z,4.6
2015-10-12T01:59:14.031Z,4.6
2015-10-12T01:59:32.580Z,4.6
2015-10-12T01:59:51.127Z,4.6
2015-10-12T02:00:09.502Z,4.6
2015-10-12T02:00:27.942Z,4.6
2015-10-12T02:00:46.364Z,4.6
2015-10-12T02:01:04.911Z,4.5
2015-10-12T02:01:23.461Z,4.5
2015-10-12T02:01:41.945Z,4.5
2015-10-12T02:02:00.508Z,4.5
2015-10-12T02:02:18.883Z,4.5
2015-10-12T02:02:37.620Z,4.5
2015-10-12T02:02:56.136Z,4.5
2015-10-12T02:03:14.526Z,4.4
2015-10-12T02:03:32.935Z,4.3
2015-10-12T02:03:51.420Z,4.3
2015-10-12T02:04:09.795Z,4.3
2015-10-12T02:04:28.531Z,4.3
2015-10-12T02:04:47.203Z,4.3
2015-10-12T02:05:05.594Z,4.3
2015-10-12T02:05:24.031Z,4.3
2015-10-12T02:05:42.644Z,4.3
2015-10-12T02:06:00.987Z,4.3
2015-10-12T02:06:19.347Z,4.4
2015-10-12T02:06:37.865Z,4.3
2015-10-12T02:06:56.225Z,4.3
2015-10-12T02:07:14.678Z,4.4
2015-10-12T02:07:33.242Z,4.3
2015-10-12T02:07:51.774Z,4.2
2015-10-12T02:08:10.289Z,4.2
2015-10-12T02:08:28.805Z,4.2
2015-10-12T02:08:47.261Z,4.3
2015-10-12T02:09:05.933Z,4.3
2015-10-12T02:09:24.636Z,4.3
2015-10-12T02:09:42.967Z,4.3
2015-10-12T02:10:01.576Z,4.2
2015-10-12T02:10:19.920Z,4.2
2015-10-12T02:10:38.595Z,4.2
2015-10-12T02:10:57.236Z,4.3
2015-10-12T02:11:15.611Z,4.4
2015-10-12T02:11:34.033Z,4.4
2015-10-12T02:11:52.644Z,4.4
2015-10-12T02:12:11.019Z,4.4
2015-10-12T02:12:29.378Z,4.4
2015-10-12T02:12:48.007Z,4.3
2015-10-12T02:13:06.367Z,4.3
2015-10-12T02:13:24.929Z,4.3
2015-10-12T02:13:43.322Z,4.4
2015-10-12T02:14:01.681Z,4.4
2015-10-12T02:14:20.056Z,4.4
2015-10-12T02:14:38.431Z,4.4
2015-10-12T02:14:56.778Z,4.4
2015-10-12T02:15:15.278Z,4.4
2015-10-12T02:15:33.622Z,4.4
2015-10-12T02:15:51.967Z,4.4
2015-10-12T02:16:10.311Z,4.3
2015-10-12T02:16:28.733Z,4.2
2015-10-12T02:16:47.314Z,4.3
2015-10-12T02:17:05.736Z,4.3
2015-10-12T02:17:24.127Z,4.3
2015-10-12T02:17:42.833Z,4.3
2015-10-12T02:18:01.161Z,4.2
2015-10-12T02:18:19.520Z,4.3
2015-10-12T02:18:38.052Z,4.3
2015-10-12T02:18:56.398Z,4.3
2015-10-12T02:19:14.726Z,4.3
2015-10-12T02:19:33.320Z,4.2
2015-10-12T02:19:51.697Z,4.2
2015-10-12T02:20:10.057Z,4.2
2015-10-12T02:20:28.510Z,4.2
2015-10-12T02:20:46.887Z,4.1
2015-10-12T02:21:05.246Z,4.2
2015-10-12T02:21:23.605Z,4.2
2015-10-12T02:21:42.340Z,4.2
2015-10-12T02:22:00.672Z,4.2
2015-10-12T02:22:19.094Z,4.1
2015-10-12T02:22:37.500Z,4.1
2015-10-12T02:22:55.955Z,4.2
2015-10-12T02:23:14.377Z,4.2
2015-10-12T02:23:32.768Z,4.1
2015-10-12T02:23:51.427Z,4.2
2015-10-12T02:24:09.786Z,4.2
2015-10-12T02:24:28.318Z,4.2
2015-10-12T02:24:46.741Z,4.2
2015-10-12T02:25:05.116Z,4.2
2015-10-12T02:25:23.523Z,4.1
2015-10-12T02:25:41.913Z,4.2
2015-10-12T02:26:00.291Z,4.2
2015-10-12T02:26:18.635Z,4.2
2015-10-12T02:26:36.979Z,4.2
2015-10-12T02:26:55.404Z,4.2
2015-10-12T02:27:13.607Z,4.2
2015-10-12T02:27:32.060Z,4.2
2015-10-12T02:27:50.624Z,4.2
2015-10-12T02:28:09.203Z,4.2
2015-10-12T02:28:27.531Z,4.1
2015-10-12T02:28:45.953Z,4.2
2015-10-12T02:29:04.394Z,4.3
2015-10-12T02:29:22.863Z,4.3
2015-10-12T02:29:41.253Z,4.2
2015-10-12T02:29:59.818Z,4.2
2015-10-12T02:30:18.412Z,4.2
2015-10-12T02:30:38.474Z,4.2
2015-10-12T02:30:56.962Z,4.2
2015-10-12T02:31:15.633Z,4.2
2015-10-12T02:31:33.993Z,4.2
2015-10-12T02:31:52.355Z,4.1
2015-10-12T02:32:10.699Z,4.1
2015-10-12T02:32:29.230Z,4.1
2015-10-12T02:32:47.855Z,4.1
2015-10-12T02:33:06.218Z,4.1
2015-10-12T02:33:24.686Z,4.1
2015-10-12T02:33:43.139Z,4.1
2015-10-12T02:34:01.486Z,4.1
2015-10-12T02:34:19.908Z,4.1
2015-10-12T02:34:38.283Z,4.1
2015-10-12T02:34:56.707Z,4.1
2015-10-12T02:35:15.160Z,4.1
2015-10-12T02:35:33.598Z,4.1
2015-10-12T02:35:51.973Z,4.1
2015-10-12T02:36:10.335Z,4
2015-10-12T02:36:29.069Z,4
2015-10-12T02:36:47.585Z,4
2015-10-12T02:37:06.181Z,4
2015-10-12T02:37:24.759Z,4
2015-10-12T02:37:43.462Z,4
2015-10-12T02:38:01.810Z,4
2015-10-12T02:38:20.153Z,4
2015-10-12T02:38:38.560Z,4
2015-10-12T02:38:56.935Z,4
2015-10-12T02:39:15.296Z,4
2015-10-12T02:39:33.702Z,4
2015-10-12T02:39:52.062Z,3.9
2015-10-12T02:40:10.408Z,4
2015-10-12T02:40:28.893Z,4
2015-10-12T02:40:47.362Z,4
2015-10-12T02:41:05.833Z,4
2015-10-12T02:41:24.208Z,4
2015-10-12T02:41:42.630Z,4.1
2015-10-12T02:42:01.411Z,4.1
2015-10-12T02:42:19.976Z,4.1
2015-10-12T02:42:38.523Z,4.2
2015-10-12T02:42:56.898Z,4.2
2015-10-12T02:43:15.291Z,4.2
2015-10-12T02:43:33.651Z,4.2
2015-10-12T02:43:52.120Z,4.2
2015-10-12T02:44:10.513Z,4.2
2015-10-12T02:44:28.857Z,4.2
2015-10-12T02:44:47.263Z,4.1
2015-10-12T02:45:05.779Z,4.2
2015-10-12T02:45:24.282Z,4.1
2015-10-12T02:45:42.813Z,4.2
2015-10-12T02:46:01.235Z,4.2
2015-10-12T02:46:19.721Z,4.2
2015-10-12T02:46:38.143Z,4.2
2015-10-12T02:46:56.659Z,4.2
2015-10-12T02:47:15.037Z,4.2
2015-10-12T02:47:33.537Z,4.1
2015-10-12T02:47:51.943Z,4.2
2015-10-12T02:48:10.318Z,4.1
2015-10-12T02:48:28.680Z,4.1
2015-10-12T02:48:47.009Z,4.1
2015-10-12T02:49:05.540Z,4
2015-10-12T02:49:23.979Z,4.1
2015-10-12T02:49:42.401Z,4.1
2015-10-12T02:50:00.901Z,4.1
2015-10-12T02:50:19.311Z,4.1
2015-10-12T02:50:37.655Z,4.1
2015-10-12T02:50:56.202Z,4.1
2015-10-12T02:51:14.686Z,4.1
2015-10-12T02:51:33.063Z,4.1
2015-10-12T02:51:51.438Z,4
2015-10-12T02:52:09.782Z,4
2015-10-12T02:52:28.129Z,4
2015-10-12T02:52:46.770Z,4.1
2015-10-12T02:53:05.113Z,4.1
2015-10-12T02:53:23.444Z,4.1
2015-10-12T02:53:41.804Z,4.1
2015-10-12T02:54:00.116Z,4.1
2015-10-12T02:54:18.554Z,4.2
2015-10-12T02:54:37.010Z,4.2
2015-10-12T02:54:55.604Z,4.2
2015-10-12T02:55:14.072Z,4.2
2015-10-12T02:55:32.559Z,4.2
2015-10-12T02:55:50.903Z,4.1
2015-10-12T02:56:09.278Z,4.2
2015-10-12T02:56:27.827Z,4.1
2015-10-12T02:56:46.187Z,4.1
2015-10-12T02:57:04.546Z,4.2
2015-10-12T02:57:23.077Z,4.2
2015-10-12T02:57:41.487Z,4.2
2015-10-12T02:58:00.002Z,4.2
2015-10-12T02:58:18.455Z,4.2
2015-10-12T02:58:37.129Z,4.2
2015-10-12T02:58:55.504Z,4.2
2015-10-12T02:59:14.051Z,4.1
2015-10-12T02:59:32.617Z,4.1
2015-10-12T02:59:51.273Z,4.1
2015-10-12T03:00:09.710Z,4.1
2015-10-12T03:00:28.070Z,4.1
2015-10-12T03:00:46.651Z,4.1
2015-10-12T03:01:05.057Z,4
2015-10-12T03:01:23.417Z,4
2015-10-12T03:01:41.872Z,4
2015-10-12T03:02:00.403Z,4.1
2015-10-12T03:02:18.887Z,4
2015-10-12T03:02:37.406Z,4
2015-10-12T03:02:55.890Z,4.1
2015-10-12T03:03:14.422Z,4
2015-10-12T03:03:32.859Z,4
2015-10-12T03:03:51.315Z,4
2015-10-12T03:04:09.690Z,4
2015-10-12T03:04:28.143Z,3.9
2015-10-12T03:04:47.006Z,4
2015-10-12T03:05:05.474Z,4
2015-10-12T03:05:24.006Z,4
2015-10-12T03:05:42.524Z,4
2015-10-12T03:06:00.915Z,4
2015-10-12T03:06:19.540Z,3.9
2015-10-12T03:06:38.118Z,3.9
2015-10-12T03:06:56.464Z,3.9
2015-10-12T03:07:14.823Z,3.9
2015-10-12T03:07:33.433Z,3.9
2015-10-12T03:07:51.983Z,3.9
2015-10-12T03:08:10.640Z,3.9
2015-10-12T03:08:29.046Z,3.9
2015-10-12T03:08:47.492Z,3.9
2015-10-12T03:09:05.851Z,3.9
2015-10-12T03:09:24.211Z,3.9
2015-10-12T03:09:42.570Z,3.9
2015-10-12T03:10:01.262Z,3.9
2015-10-12T03:10:19.856Z,3.9
2015-10-12T03:10:38.309Z,3.9
2015-10-12T03:10:56.720Z,3.9
2015-10-12T03:11:15.064Z,3.9
2015-10-12T03:11:33.611Z,3.9
2015-10-12T03:11:51.990Z,4
2015-10-12T03:12:10.334Z,3.9
2015-10-12T03:12:28.740Z,3.8
2015-10-12T03:12:47.432Z,3.8
2015-10-12T03:13:05.807Z,3.8
2015-10-12T03:13:24.276Z,3.8
2015-10-12T03:13:42.729Z,3.8
2015-10-12T03:14:01.132Z,3.8
2015-10-12T03:14:19.725Z,3.7
2015-10-12T03:14:38.163Z,3.7
2015-10-12T03:14:56.708Z,3.8
2015-10-12T03:15:15.380Z,3.8
2015-10-12T03:15:33.833Z,3.8
2015-10-12T03:15:52.221Z,3.8
2015-10-12T03:16:10.643Z,3.7
2015-10-12T03:16:29.456Z,3.8
2015-10-12T03:16:47.846Z,3.7
2015-10-12T03:17:06.235Z,3.7
2015-10-12T03:17:24.672Z,3.8
2015-10-12T03:17:43.001Z,3.8
2015-10-12T03:18:01.452Z,3.8
2015-10-12T03:18:19.827Z,3.8
2015-10-12T03:18:38.186Z,3.8
2015-10-12T03:18:56.655Z,3.8
2015-10-12T03:19:15.045Z,3.8
2015-10-12T03:19:33.452Z,3.8
2015-10-12T03:19:51.889Z,3.8
2015-10-12T03:20:10.312Z,3.8
2015-10-12T03:20:28.968Z,3.8
2015-10-12T03:20:47.671Z,3.8
2015-10-12T03:21:06.140Z,3.8
2015-10-12T03:21:24.609Z,3.8
2015-10-12T03:21:43.203Z,3.8
2015-10-12T03:22:01.705Z,3.7
2015-10-12T03:22:20.220Z,3.7
2015-10-12T03:22:38.595Z,3.7
2015-10-12T03:22:56.986Z,3.7
2015-10-12T03:23:15.736Z,3.6
2015-10-12T03:23:34.455Z,3.7
2015-10-12T03:23:52.830Z,3.7
2015-10-12T03:24:11.255Z,3.7
2015-10-12T03:24:29.536Z,3.7
2015-10-12T03:24:48.239Z,3.8
2015-10-12T03:25:06.912Z,3.8
2015-10-12T03:25:25.459Z,3.7
2015-10-12T03:25:43.849Z,3.7
2015-10-12T03:26:02.320Z,3.7
2015-10-12T03:26:20.836Z,3.7
2015-10-12T03:26:39.289Z,3.6
2015-10-12T03:26:57.742Z,3.6
2015-10-12T03:27:16.275Z,3.6
2015-10-12T03:27:34.603Z,3.7
2015-10-12T03:27:53.010Z,3.8
2015-10-12T03:28:11.637Z,3.7
2015-10-12T03:28:30.168Z,3.7
2015-10-12T03:28:48.590Z,3.7
2015-10-12T03:29:07.077Z,3.7
2015-10-12T03:29:25.671Z,3.8
2015-10-12T03:29:44.343Z,3.8
2015-10-12T03:30:02.905Z,3.8
2015-10-12T03:30:21.642Z,3.8
2015-10-12T03:30:40.017Z,3.7
2015-10-12T03:30:58.454Z,3.8
2015-10-12T03:31:16.864Z,3.8
2015-10-12T03:31:35.208Z,3.7
2015-10-12T03:31:53.583Z,3.7
2015-10-12T03:32:12.007Z,3.7
2015-10-12T03:32:30.398Z,3.7
2015-10-12T03:32:48.851Z,3.8
2015-10-12T03:33:07.351Z,3.7
2015-10-12T03:33:26.010Z,3.7
2015-10-12T03:33:44.916Z,3.6
2015-10-12T03:34:03.432Z,3.7
2015-10-12T03:34:21.825Z,3.7
2015-10-12T03:34:40.669Z,3.7
2015-10-12T03:34:59.075Z,3.7
2015-10-12T03:35:17.671Z,3.7
2015-10-12T03:35:36.562Z,3.7
2015-10-12T03:35:54.999Z,3.7
2015-10-12T03:36:13.359Z,3.8
2015-10-12T03:36:32.253Z,3.8
2015-10-12T03:36:50.706Z,3.8
2015-10-12T03:37:09.113Z,3.8
2015-10-12T03:37:27.693Z,3.8
2015-10-12T03:37:46.552Z,3.8
2015-10-12T03:38:04.958Z,3.7
2015-10-12T03:38:23.554Z,3.8
2015-10-12T03:38:42.132Z,3.8
2015-10-12T03:39:00.632Z,3.7
2015-10-12T03:39:19.148Z,3.7
2015-10-12T03:39:37.652Z,3.7
2015-10-12T03:39:56.027Z,3.7
2015-10-12T03:40:14.683Z,3.7
2015-10-12T03:40:33.060Z,3.7
2015-10-12T03:40:51.435Z,3.7
2015-10-12T03:41:09.841Z,3.8
2015-10-12T03:41:28.360Z,3.8
2015-10-12T03:41:46.719Z,3.8
2015-10-12T03:42:05.063Z,3.7
2015-10-12T03:42:23.407Z,3.7
2015-10-12T03:42:42.019Z,3.7
2015-10-12T03:43:00.347Z,3.6
2015-10-12T03:43:18.676Z,3.6
2015-10-12T03:43:37.053Z,3.7
2015-10-12T03:43:55.553Z,3.6
2015-10-12T03:44:14.303Z,3.6
2015-10-12T03:44:32.665Z,3.6
2015-10-12T03:44:51.259Z,3.6
2015-10-12T03:45:09.696Z,3.6
2015-10-12T03:45:28.105Z,3.6
2015-10-12T03:45:46.684Z,3.7
2015-10-12T03:46:05.230Z,3.7
2015-10-12T03:46:23.605Z,3.7
2015-10-12T03:46:42.171Z,3.7
2015-10-12T03:47:00.593Z,3.7
2015-10-12T03:47:19.124Z,3.7
2015-10-12T03:47:37.611Z,3.7
2015-10-12T03:47:56.221Z,3.7
2015-10-12T03:48:14.627Z,3.7
2015-10-12T03:48:32.879Z,3.8
2015-10-12T03:48:51.317Z,3.8
2015-10-12T03:49:09.770Z,3.8
2015-10-12T03:49:28.160Z,3.8
2015-10-12T03:49:46.835Z,3.8
2015-10-12T03:50:05.226Z,3.8
2015-10-12T03:50:23.632Z,3.7
2015-10-12T03:50:42.323Z,3.7
2015-10-12T03:51:00.885Z,3.7
2015-10-12T03:51:19.385Z,3.7
2015-10-12T03:51:37.841Z,3.7
2015-10-12T03:51:56.185Z,3.7
2015-10-12T03:52:14.654Z,3.7
2015-10-12T03:52:33.060Z,3.7
2015-10-12T03:52:51.468Z,3.7
2015-10-12T03:53:09.859Z,3.6
2015-10-12T03:53:28.609Z,3.6
2015-10-12T03:53:47.346Z,3.7
2015-10-12T03:54:05.862Z,3.7
2015-10-12T03:54:24.502Z,3.7
2015-10-12T03:54:42.943Z,3.6
2015-10-12T03:55:01.443Z,3.7
2015-10-12T03:55:19.990Z,3.7
2015-10-12T03:55:38.365Z,3.7
2015-10-12T03:55:56.773Z,3.7
2015-10-12T03:56:15.179Z,3.7
2015-10-12T03:56:33.617Z,3.7
2015-10-12T03:56:52.026Z,3.6
2015-10-12T03:57:10.698Z,3.6
2015-10-12T03:57:29.182Z,3.6
2015-10-12T03:57:47.810Z,3.6
2015-10-12T03:58:06.154Z,3.6
2015-10-12T03:58:24.623Z,3.6
2015-10-12T03:58:43.016Z,3.6
2015-10-12T03:59:01.454Z,3.6
2015-10-12T03:59:20.188Z,3.6
2015-10-12T03:59:38.782Z,3.6
2015-10-12T03:59:57.190Z,3.6
2015-10-12T04:00:15.550Z,3.6
2015-10-12T04:00:33.925Z,3.6
2015-10-12T04:00:52.506Z,3.6
2015-10-12T04:01:10.881Z,3.6
2015-10-12T04:01:29.303Z,3.6
2015-10-12T04:01:47.883Z,3.6
2015-10-12T04:02:06.398Z,3.7
2015-10-12T04:02:24.883Z,3.7
2015-10-12T04:02:43.417Z,3.7
2015-10-12T04:03:01.776Z,3.7
2015-10-12T04:03:20.276Z,3.7
2015-10-12T04:03:38.776Z,3.7
2015-10-12T04:03:57.123Z,3.6
2015-10-12T04:04:15.529Z,3.6
2015-10-12T04:04:34.264Z,3.6
2015-10-12T04:04:52.875Z,3.6
2015-10-12T04:05:11.266Z,3.6
2015-10-12T04:05:29.781Z,3.6
2015-10-12T04:05:48.191Z,3.6
2015-10-12T04:06:06.613Z,3.7
2015-10-12T04:06:25.066Z,3.7
2015-10-12T04:06:43.534Z,3.7
2015-10-12T04:07:02.100Z,3.7
2015-10-12T04:07:20.412Z,3.6
2015-10-12T04:07:38.881Z,3.6
2015-10-12T04:07:57.462Z,3.5
2015-10-12T04:08:15.869Z,3.5
2015-10-12T04:08:34.322Z,3.5
2015-10-12T04:08:52.824Z,3.5
2015-10-12T04:09:11.167Z,3.5
2015-10-12T04:09:29.683Z,3.5
2015-10-12T04:09:48.105Z,3.5
2015-10-12T04:10:06.592Z,3.4
2015-10-12T04:10:25.030Z,3.5
2015-10-12T04:10:43.577Z,3.5
2015-10-12T04:11:02.048Z,3.4
2015-10-12T04:11:20.455Z,3.4
2015-10-12T04:11:38.986Z,3.4
2015-10-12T04:11:57.739Z,3.4
2015-10-12T04:12:16.083Z,3.4
2015-10-12T04:12:34.442Z,3.4
2015-10-12T04:12:52.851Z,3.4
2015-10-12T04:13:11.226Z,3.4
2015-10-12T04:13:29.586Z,3.3
2015-10-12T04:13:48.164Z,3.3
2015-10-12T04:14:06.572Z,3.3
2015-10-12T04:14:24.963Z,3.3
2015-10-12T04:14:43.556Z,3.3
2015-10-12T04:15:02.044Z,3.3
2015-10-12T04:15:20.388Z,3.3
2015-10-12T04:15:38.950Z,3.3